sensor_id;sensor_type;location;lat;lon;timestamp;pressure;altitude;pressure_sealevel;temperature;humidity
48800;BME280;34611;47.964;7.982;2023-05-29T00:00:06;96708.03;;;13.67;67.92
48800;BME280;34611;47.964;7.982;2023-05-29T00:07:10;96713.28;;;13.67;67.91
48800;BME280;34611;47.964;7.982;2023-05-29T00:14:10;96714.09;;;13.68;67.82
48800;BME280;34611;47.964;7.982;2023-05-29T00:21:13;96708.84;;;13.68;67.93
48800;BME280;34611;47.964;7.982;2023-05-29T00:28:14;96707.06;;;13.68;67.77
48800;BME280;34611;47.964;7.982;2023-05-29T00:35:14;96710.66;;;13.67;67.82
48800;BME280;34611;47.964;7.982;2023-05-29T00:42:15;96709.66;;;13.68;67.77
48800;BME280;34611;47.964;7.982;2023-05-29T00:49:16;96695.78;;;13.68;67.80
48800;BME280;34611;47.964;7.982;2023-05-29T00:56:16;96696.59;;;13.68;67.90
48800;BME280;34611;47.964;7.982;2023-05-29T01:03:17;96703.63;;;13.68;67.94
48800;BME280;34611;47.964;7.982;2023-05-29T01:10:19;96703.63;;;13.68;67.96
48800;BME280;34611;47.964;7.982;2023-05-29T01:17:24;96705.28;;;13.69;67.93
48800;BME280;34611;47.964;7.982;2023-05-29T01:24:30;96705.44;;;13.67;67.98
48800;BME280;34611;47.964;7.982;2023-05-29T01:31:32;96704.44;;;13.68;67.90
48800;BME280;34611;47.964;7.982;2023-05-29T01:38:34;96703.63;;;13.68;67.79
48800;BME280;34611;47.964;7.982;2023-05-29T01:45:35;96702.81;;;13.67;67.81
48800;BME280;34611;47.964;7.982;2023-05-29T01:52:36;96700.22;;;13.67;67.78
48800;BME280;34611;47.964;7.982;2023-05-29T01:59:36;96688.78;;;13.68;67.87
48800;BME280;34611;47.964;7.982;2023-05-29T02:06:37;96688.78;;;13.68;67.86
48800;BME280;34611;47.964;7.982;2023-05-29T02:13:38;96687.97;;;13.68;67.93
48800;BME280;34611;47.964;7.982;2023-05-29T02:20:38;96683.53;;;13.68;67.79
48800;BME280;34611;47.964;7.982;2023-05-29T02:27:39;96689.63;;;13.69;67.92
48800;BME280;34611;47.964;7.982;2023-05-29T02:34:40;96692.22;;;13.69;67.98
48800;BME280;34611;47.964;7.982;2023-05-29T02:41:40;96690.44;;;13.69;67.81
48800;BME280;34611;47.964;7.982;2023-05-29T02:48:40;96692.22;;;13.69;67.80
48800;BME280;34611;47.964;7.982;2023-05-29T02:55:41;96690.44;;;13.69;67.95
48800;BME280;34611;47.964;7.982;2023-05-29T03:02:42;96683.53;;;13.68;67.81
48800;BME280;34611;47.964;7.982;2023-05-29T03:09:43;96686.16;;;13.68;67.80
48800;BME280;34611;47.964;7.982;2023-05-29T03:16:44;96680.94;;;13.68;67.82
48800;BME280;34611;47.964;7.982;2023-05-29T03:23:46;96684.53;;;13.67;68.00
48800;BME280;34611;47.964;7.982;2023-05-29T03:30:47;96685.34;;;13.68;67.81
48800;BME280;34611;47.964;7.982;2023-05-29T03:37:51;96679.31;;;13.67;68.01
48800;BME280;34611;47.964;7.982;2023-05-29T03:44:51;96685.19;;;13.69;67.85
48800;BME280;34611;47.964;7.982;2023-05-29T03:51:51;96686.16;;;13.68;67.92
48800;BME280;34611;47.964;7.982;2023-05-29T03:58:53;96689.63;;;13.69;67.78
48800;BME280;34611;47.964;7.982;2023-05-29T04:05:54;96696.59;;;13.68;67.93
48800;BME280;34611;47.964;7.982;2023-05-29T04:12:55;96694.00;;;13.68;67.95
48800;BME280;34611;47.964;7.982;2023-05-29T04:19:56;96711.47;;;13.68;67.90
48800;BME280;34611;47.964;7.982;2023-05-29T04:26:56;96714.91;;;13.68;67.94
48800;BME280;34611;47.964;7.982;2023-05-29T04:33:57;96722.72;;;13.68;67.85
48800;BME280;34611;47.964;7.982;2023-05-29T04:40:58;96725.34;;;13.68;67.82
48800;BME280;34611;47.964;7.982;2023-05-29T04:47:59;96728.81;;;13.69;67.79
48800;BME280;34611;47.964;7.982;2023-05-29T04:55:00;96736.78;;;13.67;67.87
48800;BME280;34611;47.964;7.982;2023-05-29T05:02:01;96750.50;;;13.69;67.88
48800;BME280;34611;47.964;7.982;2023-05-29T05:09:02;96758.34;;;13.69;67.82
48800;BME280;34611;47.964;7.982;2023-05-29T05:16:04;96754.06;;;13.68;68.00
48800;BME280;34611;47.964;7.982;2023-05-29T05:23:05;96756.69;;;13.68;67.85
48800;BME280;34611;47.964;7.982;2023-05-29T05:30:06;96761.91;;;13.68;67.84
48800;BME280;34611;47.964;7.982;2023-05-29T05:37:07;96755.88;;;13.68;67.86
48800;BME280;34611;47.964;7.982;2023-05-29T05:44:08;96759.31;;;13.68;67.86
48800;BME280;34611;47.964;7.982;2023-05-29T05:51:14;96752.31;;;13.69;67.92
48800;BME280;34611;47.964;7.982;2023-05-29T05:58:16;96768.78;;;13.69;67.83
48800;BME280;34611;47.964;7.982;2023-05-29T06:05:18;96763.56;;;13.69;67.89
48800;BME280;34611;47.964;7.982;2023-05-29T06:12:18;96755.88;;;13.68;67.81
48800;BME280;34611;47.964;7.982;2023-05-29T06:19:29;96762.75;;;13.69;67.82
48800;BME280;34611;47.964;7.982;2023-05-29T06:26:35;96771.41;;;13.69;67.75
48800;BME280;34611;47.964;7.982;2023-05-29T06:33:37;96774.97;;;13.68;67.79
48800;BME280;34611;47.964;7.982;2023-05-29T06:40:39;96777.59;;;13.68;67.84
48800;BME280;34611;47.964;7.982;2023-05-29T06:47:39;96782.00;;;13.68;67.89
48800;BME280;34611;47.964;7.982;2023-05-29T06:54:40;96780.06;;;13.70;67.84
48800;BME280;34611;47.964;7.982;2023-05-29T07:01:44;96782.81;;;13.68;67.92
48800;BME280;34611;47.964;7.982;2023-05-29T07:08:44;96790.66;;;13.68;67.75
48800;BME280;34611;47.964;7.982;2023-05-29T07:15:46;96781.03;;;13.69;67.89
48800;BME280;34611;47.964;7.982;2023-05-29T07:22:47;96788.88;;;13.69;67.91
48800;BME280;34611;47.964;7.982;2023-05-29T07:29:48;96782.66;;;13.70;67.82
48800;BME280;34611;47.964;7.982;2023-05-29T07:37:02;96778.25;;;13.70;67.89
48800;BME280;34611;47.964;7.982;2023-05-29T07:44:04;96787.09;;;13.69;67.92
48800;BME280;34611;47.964;7.982;2023-05-29T07:51:05;96789.69;;;13.69;67.80
48800;BME280;34611;47.964;7.982;2023-05-29T07:58:10;96781.84;;;13.69;67.83
48800;BME280;34611;47.964;7.982;2023-05-29T08:05:11;96770.59;;;13.69;67.99
48800;BME280;34611;47.964;7.982;2023-05-29T08:12:13;96774.03;;;13.69;67.93
48800;BME280;34611;47.964;7.982;2023-05-29T08:19:14;96768.78;;;13.69;67.99
48800;BME280;34611;47.964;7.982;2023-05-29T08:26:14;96768.78;;;13.69;67.98
48800;BME280;34611;47.964;7.982;2023-05-29T08:33:15;96779.25;;;13.69;67.90
48800;BME280;34611;47.964;7.982;2023-05-29T08:40:15;96780.88;;;13.70;67.90
48800;BME280;34611;47.964;7.982;2023-05-29T08:47:17;96779.25;;;13.69;67.76
48800;BME280;34611;47.964;7.982;2023-05-29T08:54:20;96779.25;;;13.69;67.88
48800;BME280;34611;47.964;7.982;2023-05-29T09:01:21;96780.88;;;13.70;67.82
48800;BME280;34611;47.964;7.982;2023-05-29T09:08:21;96784.31;;;13.71;67.97
48800;BME280;34611;47.964;7.982;2023-05-29T09:15:23;96780.88;;;13.70;67.79
48800;BME280;34611;47.964;7.982;2023-05-29T09:22:23;96779.25;;;13.69;67.98
48800;BME280;34611;47.964;7.982;2023-05-29T09:29:23;96780.06;;;13.70;67.81
48800;BME280;34611;47.964;7.982;2023-05-29T09:36:24;96780.06;;;13.70;67.80
48800;BME280;34611;47.964;7.982;2023-05-29T09:43:25;96785.28;;;13.70;67.91
48800;BME280;34611;47.964;7.982;2023-05-29T09:50:26;96785.28;;;13.70;67.72
48800;BME280;34611;47.964;7.982;2023-05-29T09:57:26;96786.09;;;13.70;67.96
48800;BME280;34611;47.964;7.982;2023-05-29T10:04:27;96773.03;;;13.70;67.88
48800;BME280;34611;47.964;7.982;2023-05-29T10:11:27;96775.66;;;13.70;67.92
48800;BME280;34611;47.964;7.982;2023-05-29T10:18:32;96771.41;;;13.69;67.82
48800;BME280;34611;47.964;7.982;2023-05-29T10:25:35;96773.03;;;13.70;67.79
48800;BME280;34611;47.964;7.982;2023-05-29T10:39:39;96763.56;;;13.69;67.95
48800;BME280;34611;47.964;7.982;2023-05-29T10:47:21;96753.13;;;13.69;67.94
48800;BME280;34611;47.964;7.982;2023-05-29T10:54:05;96749.53;;;13.70;67.92
48800;BME280;34611;47.964;7.982;2023-05-29T11:01:05;96744.28;;;13.70;67.81
48800;BME280;34611;47.964;7.982;2023-05-29T11:08:08;96742.66;;;13.69;67.84
48800;BME280;34611;47.964;7.982;2023-05-29T11:15:12;96744.28;;;13.70;67.80
48800;BME280;34611;47.964;7.982;2023-05-29T11:22:15;96739.06;;;13.70;67.93
48800;BME280;34611;47.964;7.982;2023-05-29T11:29:21;96735.50;;;13.71;67.89
48800;BME280;34611;47.964;7.982;2023-05-29T11:36:21;96735.50;;;13.71;67.88
48800;BME280;34611;47.964;7.982;2023-05-29T11:43:22;96730.28;;;13.71;67.92
48800;BME280;34611;47.964;7.982;2023-05-29T11:50:23;96725.06;;;13.71;67.79
48800;BME280;34611;47.964;7.982;2023-05-29T11:57:24;96718.19;;;13.70;67.73
48800;BME280;34611;47.964;7.982;2023-05-29T12:04:25;96719.84;;;13.71;67.85
48800;BME280;34611;47.964;7.982;2023-05-29T12:11:25;96715.56;;;13.70;67.97
48800;BME280;34611;47.964;7.982;2023-05-29T12:18:26;96726.00;;;13.70;67.79
48800;BME280;34611;47.964;7.982;2023-05-29T12:25:26;96710.34;;;13.70;67.91
48800;BME280;34611;47.964;7.982;2023-05-29T12:39:36;96718.19;;;13.70;67.98
48800;BME280;34611;47.964;7.982;2023-05-29T12:46:38;96719.03;;;13.71;67.97
48800;BME280;34611;47.964;7.982;2023-05-29T12:53:38;96718.19;;;13.70;67.95
48800;BME280;34611;47.964;7.982;2023-05-29T13:00:39;96729.47;;;13.71;67.85
48800;BME280;34611;47.964;7.982;2023-05-29T13:07:40;96725.06;;;13.71;67.86
48800;BME280;34611;47.964;7.982;2023-05-29T13:14:40;96719.03;;;13.71;67.92
48800;BME280;34611;47.964;7.982;2023-05-29T13:21:40;96730.28;;;13.71;67.98
48800;BME280;34611;47.964;7.982;2023-05-29T13:28:48;96719.03;;;13.71;67.81
48800;BME280;34611;47.964;7.982;2023-05-29T13:35:48;96719.84;;;13.71;67.90
48800;BME280;34611;47.964;7.982;2023-05-29T13:42:48;96712.00;;;13.71;67.99
48800;BME280;34611;47.964;7.982;2023-05-29T13:49:48;96719.84;;;13.71;67.77
48800;BME280;34611;47.964;7.982;2023-05-29T13:56:49;96704.97;;;13.72;68.06
48800;BME280;34611;47.964;7.982;2023-05-29T14:03:49;96709.38;;;13.71;67.97
48800;BME280;34611;47.964;7.982;2023-05-29T14:10:49;96698.94;;;13.71;67.89
48800;BME280;34611;47.964;7.982;2023-05-29T14:17:50;96692.91;;;13.71;67.90
48800;BME280;34611;47.964;7.982;2023-05-29T14:24:53;96695.34;;;13.72;67.96
48800;BME280;34611;47.964;7.982;2023-05-29T14:31:55;96696.31;;;13.71;67.85
48800;BME280;34611;47.964;7.982;2023-05-29T14:38:56;96691.09;;;13.71;67.96
48800;BME280;34611;47.964;7.982;2023-05-29T14:45:56;96697.94;;;13.72;67.92
48800;BME280;34611;47.964;7.982;2023-05-29T14:52:56;96690.09;;;13.72;67.92
48800;BME280;34611;47.964;7.982;2023-05-29T14:59:56;96693.56;;;13.73;67.98
48800;BME280;34611;47.964;7.982;2023-05-29T15:06:57;96690.09;;;13.72;67.87
48800;BME280;34611;47.964;7.982;2023-05-29T15:13:57;96695.34;;;13.72;68.00
48800;BME280;34611;47.964;7.982;2023-05-29T15:20:57;96696.19;;;13.73;67.94
48800;BME280;34611;47.964;7.982;2023-05-29T15:27:58;96693.72;;;13.71;68.01
48800;BME280;34611;47.964;7.982;2023-05-29T15:34:58;96688.47;;;13.71;67.98
48800;BME280;34611;47.964;7.982;2023-05-29T15:41:59;96690.09;;;13.72;68.03
48800;BME280;34611;47.964;7.982;2023-05-29T15:48:59;96693.72;;;13.71;68.04
48800;BME280;34611;47.964;7.982;2023-05-29T15:55:59;96693.56;;;13.73;68.00
48800;BME280;34611;47.964;7.982;2023-05-29T16:03:00;96698.94;;;13.71;67.89
48800;BME280;34611;47.964;7.982;2023-05-29T16:10:01;96684.06;;;13.72;67.90
48800;BME280;34611;47.964;7.982;2023-05-29T16:17:01;96690.94;;;13.73;67.98
48800;BME280;34611;47.964;7.982;2023-05-29T16:24:02;96695.34;;;13.72;67.97
48800;BME280;34611;47.964;7.982;2023-05-29T16:31:02;96684.88;;;13.72;67.97
48800;BME280;34611;47.964;7.982;2023-05-29T16:38:03;96690.09;;;13.72;67.92
48800;BME280;34611;47.964;7.982;2023-05-29T16:45:03;96697.81;;;13.74;68.01
48800;BME280;34611;47.964;7.982;2023-05-29T16:52:03;96695.19;;;13.74;68.03
48800;BME280;34611;47.964;7.982;2023-05-29T16:59:04;96695.19;;;13.74;67.89
48800;BME280;34611;47.964;7.982;2023-05-29T17:06:04;96697.81;;;13.74;67.99
48800;BME280;34611;47.964;7.982;2023-05-29T17:13:04;96692.56;;;13.74;68.02
48800;BME280;34611;47.964;7.982;2023-05-29T17:20:05;96697.81;;;13.74;67.87
48800;BME280;34611;47.964;7.982;2023-05-29T17:27:06;96697.81;;;13.74;67.88
48800;BME280;34611;47.964;7.982;2023-05-29T17:34:08;96709.25;;;13.73;67.89
48800;BME280;34611;47.964;7.982;2023-05-29T17:41:08;96719.50;;;13.74;68.06
48800;BME280;34611;47.964;7.982;2023-05-29T17:48:09;96721.31;;;13.74;67.91
48800;BME280;34611;47.964;7.982;2023-05-29T17:55:09;96727.34;;;13.74;67.90
48800;BME280;34611;47.964;7.982;2023-05-29T18:02:09;96737.81;;;13.74;68.02
48800;BME280;34611;47.964;7.982;2023-05-29T18:09:10;96743.03;;;13.74;67.86
48800;BME280;34611;47.964;7.982;2023-05-29T18:16:11;96745.63;;;13.74;68.04
48800;BME280;34611;47.964;7.982;2023-05-29T18:23:11;96754.31;;;13.75;67.93
48800;BME280;34611;47.964;7.982;2023-05-29T18:30:11;96750.88;;;13.74;68.07
48800;BME280;34611;47.964;7.982;2023-05-29T18:37:12;96761.31;;;13.74;68.01
48800;BME280;34611;47.964;7.982;2023-05-29T18:44:12;96769.00;;;13.76;67.96
48800;BME280;34611;47.964;7.982;2023-05-29T18:51:12;96777.84;;;13.75;67.83
48800;BME280;34611;47.964;7.982;2023-05-29T18:58:13;96776.03;;;13.75;67.91
48800;BME280;34611;47.964;7.982;2023-05-29T19:05:13;96780.44;;;13.75;68.00
48800;BME280;34611;47.964;7.982;2023-05-29T19:12:13;96781.25;;;13.75;67.93
48800;BME280;34611;47.964;7.982;2023-05-29T19:19:13;96790.06;;;13.74;67.88
48800;BME280;34611;47.964;7.982;2023-05-29T19:26:15;96798.56;;;13.76;68.05
48800;BME280;34611;47.964;7.982;2023-05-29T19:33:15;96810.81;;;13.76;68.05
48800;BME280;34611;47.964;7.982;2023-05-29T19:40:15;96807.38;;;13.75;67.95
48800;BME280;34611;47.964;7.982;2023-05-29T19:47:16;96825.66;;;13.75;68.06
48800;BME280;34611;47.964;7.982;2023-05-29T19:54:16;96836.94;;;13.76;68.09
48800;BME280;34611;47.964;7.982;2023-05-29T20:01:16;96849.19;;;13.75;67.93
48800;BME280;34611;47.964;7.982;2023-05-29T20:08:16;96863.06;;;13.76;67.89
48800;BME280;34611;47.964;7.982;2023-05-29T20:15:17;96868.28;;;13.76;68.03
48800;BME280;34611;47.964;7.982;2023-05-29T20:22:17;96877.91;;;13.75;68.17
48800;BME280;34611;47.964;7.982;2023-05-29T20:29:20;96891.81;;;13.76;67.95
48800;BME280;34611;47.964;7.982;2023-05-29T20:36:20;96895.22;;;13.76;68.04
48800;BME280;34611;47.964;7.982;2023-05-29T20:43:20;96897.84;;;13.76;67.91
48800;BME280;34611;47.964;7.982;2023-05-29T20:50:21;96904.03;;;13.75;68.01
48800;BME280;34611;47.964;7.982;2023-05-29T20:57:25;96902.25;;;13.76;68.12
48800;BME280;34611;47.964;7.982;2023-05-29T21:04:25;96898.81;;;13.75;68.24
48800;BME280;34611;47.964;7.982;2023-05-29T21:11:26;96899.63;;;13.76;68.06
48800;BME280;34611;47.964;7.982;2023-05-29T21:18:26;96901.44;;;13.75;68.22
48800;BME280;34611;47.964;7.982;2023-05-29T21:25:27;96904.03;;;13.75;68.14
48800;BME280;34611;47.964;7.982;2023-05-29T21:32:27;96903.06;;;13.76;68.09
48800;BME280;34611;47.964;7.982;2023-05-29T21:39:27;96899.63;;;13.76;67.97
48800;BME280;34611;47.964;7.982;2023-05-29T21:46:28;96903.22;;;13.75;68.10
48800;BME280;34611;47.964;7.982;2023-05-29T21:53:28;96912.56;;;13.77;68.07
48800;BME280;34611;47.964;7.982;2023-05-29T22:00:28;96916.13;;;13.76;68.00
48800;BME280;34611;47.964;7.982;2023-05-29T22:07:30;96924.81;;;13.77;68.00
48800;BME280;34611;47.964;7.982;2023-05-29T22:14:31;96901.44;;;13.75;67.92
48800;BME280;34611;47.964;7.982;2023-05-29T22:21:31;96906.66;;;13.75;68.06
48800;BME280;34611;47.964;7.982;2023-05-29T22:28:32;96906.53;;;13.77;68.00
48800;BME280;34611;47.964;7.982;2023-05-29T22:35:33;96910.09;;;13.76;68.09
48800;BME280;34611;47.964;7.982;2023-05-29T22:42:33;96915.31;;;13.76;68.19
48800;BME280;34611;47.964;7.982;2023-05-29T22:49:33;96916.13;;;13.76;68.00
48800;BME280;34611;47.964;7.982;2023-05-29T22:56:33;96903.22;;;13.75;68.09
48800;BME280;34611;47.964;7.982;2023-05-29T23:03:34;96905.69;;;13.76;68.12
48800;BME280;34611;47.964;7.982;2023-05-29T23:10:35;96897.84;;;13.76;68.05
48800;BME280;34611;47.964;7.982;2023-05-29T23:17:35;96903.06;;;13.76;67.92
48800;BME280;34611;47.964;7.982;2023-05-29T23:24:36;96889.19;;;13.76;68.13
48800;BME280;34611;47.964;7.982;2023-05-29T23:31:36;96890.00;;;13.76;68.01
48800;BME280;34611;47.964;7.982;2023-05-29T23:38:36;96895.22;;;13.76;68.16
48800;BME280;34611;47.964;7.982;2023-05-29T23:45:37;96886.56;;;13.76;67.90
48800;BME280;34611;47.964;7.982;2023-05-29T23:52:37;96890.00;;;13.76;67.98
48800;BME280;34611;47.964;7.982;2023-05-29T23:59:37;96884.78;;;13.76;67.87
